sensor_id;sensor_type;location;lat;lon;timestamp;P1;durP1;ratioP1;P2;durP2;ratioP2
21754;SDS011;11039;50.028;19.938;2023-04-06T00:01:38;5.68;;;3.78;;
21754;SDS011;11039;50.028;19.938;2023-04-06T00:04:04;5.60;;;3.85;;
21754;SDS011;11039;50.028;19.938;2023-04-06T00:06:31;6.55;;;4.05;;
21754;SDS011;11039;50.028;19.938;2023-04-06T00:08:57;6.47;;;4.05;;
21754;SDS011;11039;50.028;19.938;2023-04-06T00:11:23;6.15;;;3.72;;
21754;SDS011;11039;50.028;19.938;2023-04-06T00:13:50;6.70;;;4.07;;
21754;SDS011;11039;50.028;19.938;2023-04-06T00:16:16;6.22;;;4.13;;
21754;SDS011;11039;50.028;19.938;2023-04-06T00:18:42;6.05;;;3.90;;
21754;SDS011;11039;50.028;19.938;2023-04-06T00:21:10;5.93;;;4.00;;
21754;SDS011;11039;50.028;19.938;2023-04-06T00:23:38;5.50;;;3.60;;
21754;SDS011;11039;50.028;19.938;2023-04-06T00:26:04;6.28;;;3.80;;
21754;SDS011;11039;50.028;19.938;2023-04-06T00:28:30;5.47;;;3.75;;
21754;SDS011;11039;50.028;19.938;2023-04-06T00:30:56;5.15;;;3.50;;
21754;SDS011;11039;50.028;19.938;2023-04-06T00:33:22;7.75;;;4.05;;
21754;SDS011;11039;50.028;19.938;2023-04-06T00:35:48;5.82;;;3.95;;
21754;SDS011;11039;50.028;19.938;2023-04-06T00:38:15;5.85;;;3.75;;
21754;SDS011;11039;50.028;19.938;2023-04-06T00:40:41;5.63;;;3.65;;
21754;SDS011;11039;50.028;19.938;2023-04-06T00:43:09;5.63;;;3.47;;
21754;SDS011;11039;50.028;19.938;2023-04-06T00:45:37;5.40;;;3.75;;
21754;SDS011;11039;50.028;19.938;2023-04-06T00:48:04;6.85;;;4.15;;
21754;SDS011;11039;50.028;19.938;2023-04-06T00:50:30;5.90;;;3.83;;
21754;SDS011;11039;50.028;19.938;2023-04-06T00:52:56;5.45;;;3.90;;
21754;SDS011;11039;50.028;19.938;2023-04-06T00:55:22;7.15;;;4.05;;
21754;SDS011;11039;50.028;19.938;2023-04-06T00:57:48;5.40;;;3.92;;
21754;SDS011;11039;50.028;19.938;2023-04-06T01:00:16;6.60;;;4.00;;
21754;SDS011;11039;50.028;19.938;2023-04-06T01:02:42;5.85;;;3.78;;
21754;SDS011;11039;50.028;19.938;2023-04-06T01:05:09;7.32;;;4.28;;
21754;SDS011;11039;50.028;19.938;2023-04-06T01:07:36;6.68;;;3.88;;
21754;SDS011;11039;50.028;19.938;2023-04-06T01:10:02;7.03;;;4.07;;
21754;SDS011;11039;50.028;19.938;2023-04-06T01:12:28;6.88;;;4.00;;
21754;SDS011;11039;50.028;19.938;2023-04-06T01:14:54;6.43;;;3.90;;
21754;SDS011;11039;50.028;19.938;2023-04-06T01:17:21;5.93;;;3.65;;
21754;SDS011;11039;50.028;19.938;2023-04-06T01:19:47;6.72;;;4.05;;
21754;SDS011;11039;50.028;19.938;2023-04-06T01:22:17;6.80;;;3.80;;
21754;SDS011;11039;50.028;19.938;2023-04-06T01:24:44;6.00;;;4.00;;
21754;SDS011;11039;50.028;19.938;2023-04-06T01:27:11;5.63;;;3.78;;
21754;SDS011;11039;50.028;19.938;2023-04-06T01:29:37;7.25;;;4.30;;
21754;SDS011;11039;50.028;19.938;2023-04-06T01:32:06;6.15;;;4.32;;
21754;SDS011;11039;50.028;19.938;2023-04-06T01:34:32;5.90;;;3.70;;
21754;SDS011;11039;50.028;19.938;2023-04-06T01:36:58;7.03;;;4.05;;
21754;SDS011;11039;50.028;19.938;2023-04-06T01:39:24;5.75;;;4.10;;
21754;SDS011;11039;50.028;19.938;2023-04-06T01:41:51;5.78;;;3.83;;
21754;SDS011;11039;50.028;19.938;2023-04-06T01:44:17;6.55;;;3.72;;
21754;SDS011;11039;50.028;19.938;2023-04-06T01:46:44;6.55;;;4.00;;
21754;SDS011;11039;50.028;19.938;2023-04-06T01:49:10;7.10;;;4.22;;
21754;SDS011;11039;50.028;19.938;2023-04-06T01:51:36;6.43;;;4.20;;
21754;SDS011;11039;50.028;19.938;2023-04-06T01:54:02;6.60;;;3.95;;
21754;SDS011;11039;50.028;19.938;2023-04-06T01:56:28;6.72;;;4.45;;
21754;SDS011;11039;50.028;19.938;2023-04-06T01:58:54;5.72;;;3.70;;
21754;SDS011;11039;50.028;19.938;2023-04-06T02:01:21;5.70;;;4.10;;
21754;SDS011;11039;50.028;19.938;2023-04-06T02:03:47;6.30;;;4.20;;
21754;SDS011;11039;50.028;19.938;2023-04-06T02:06:13;6.20;;;3.55;;
21754;SDS011;11039;50.028;19.938;2023-04-06T02:08:39;8.02;;;4.50;;
21754;SDS011;11039;50.028;19.938;2023-04-06T02:11:05;6.32;;;4.05;;
21754;SDS011;11039;50.028;19.938;2023-04-06T02:13:31;6.05;;;3.80;;
21754;SDS011;11039;50.028;19.938;2023-04-06T02:15:57;6.68;;;4.30;;
21754;SDS011;11039;50.028;19.938;2023-04-06T02:18:24;6.20;;;4.30;;
21754;SDS011;11039;50.028;19.938;2023-04-06T02:20:50;7.65;;;4.10;;
21754;SDS011;11039;50.028;19.938;2023-04-06T02:23:16;6.70;;;4.00;;
21754;SDS011;11039;50.028;19.938;2023-04-06T02:25:42;4.70;;;3.70;;
21754;SDS011;11039;50.028;19.938;2023-04-06T02:28:08;5.90;;;3.72;;
21754;SDS011;11039;50.028;19.938;2023-04-06T02:30:34;5.28;;;3.88;;
21754;SDS011;11039;50.028;19.938;2023-04-06T02:33:00;5.68;;;3.95;;
21754;SDS011;11039;50.028;19.938;2023-04-06T02:35:27;6.43;;;4.30;;
21754;SDS011;11039;50.028;19.938;2023-04-06T02:37:54;5.80;;;3.83;;
21754;SDS011;11039;50.028;19.938;2023-04-06T02:40:20;5.47;;;3.80;;
21754;SDS011;11039;50.028;19.938;2023-04-06T02:42:46;5.63;;;3.85;;
21754;SDS011;11039;50.028;19.938;2023-04-06T02:45:12;5.20;;;3.75;;
21754;SDS011;11039;50.028;19.938;2023-04-06T02:47:38;6.03;;;4.10;;
21754;SDS011;11039;50.028;19.938;2023-04-06T02:50:04;6.50;;;4.15;;
21754;SDS011;11039;50.028;19.938;2023-04-06T02:52:31;7.13;;;4.30;;
21754;SDS011;11039;50.028;19.938;2023-04-06T02:54:57;6.28;;;4.60;;
21754;SDS011;11039;50.028;19.938;2023-04-06T02:57:23;5.88;;;4.47;;
21754;SDS011;11039;50.028;19.938;2023-04-06T02:59:49;6.07;;;4.00;;
21754;SDS011;11039;50.028;19.938;2023-04-06T03:02:15;5.35;;;3.65;;
21754;SDS011;11039;50.028;19.938;2023-04-06T03:04:41;6.82;;;4.28;;
21754;SDS011;11039;50.028;19.938;2023-04-06T03:07:07;6.28;;;4.10;;
21754;SDS011;11039;50.028;19.938;2023-04-06T03:09:36;6.05;;;4.15;;
21754;SDS011;11039;50.028;19.938;2023-04-06T03:12:02;6.30;;;4.35;;
21754;SDS011;11039;50.028;19.938;2023-04-06T03:14:28;5.35;;;3.97;;
21754;SDS011;11039;50.028;19.938;2023-04-06T03:16:54;6.25;;;4.25;;
21754;SDS011;11039;50.028;19.938;2023-04-06T03:19:20;6.85;;;4.47;;
21754;SDS011;11039;50.028;19.938;2023-04-06T03:21:46;7.05;;;4.47;;
21754;SDS011;11039;50.028;19.938;2023-04-06T03:24:12;6.97;;;4.20;;
21754;SDS011;11039;50.028;19.938;2023-04-06T03:26:38;6.18;;;4.28;;
21754;SDS011;11039;50.028;19.938;2023-04-06T03:29:05;6.75;;;4.78;;
21754;SDS011;11039;50.028;19.938;2023-04-06T03:31:31;7.07;;;4.30;;
21754;SDS011;11039;50.028;19.938;2023-04-06T03:33:57;5.53;;;4.05;;
21754;SDS011;11039;50.028;19.938;2023-04-06T03:36:24;6.10;;;4.60;;
21754;SDS011;11039;50.028;19.938;2023-04-06T03:38:51;6.25;;;4.43;;
21754;SDS011;11039;50.028;19.938;2023-04-06T03:41:18;5.28;;;4.18;;
21754;SDS011;11039;50.028;19.938;2023-04-06T03:43:44;5.88;;;4.38;;
21754;SDS011;11039;50.028;19.938;2023-04-06T03:46:10;7.28;;;4.20;;
21754;SDS011;11039;50.028;19.938;2023-04-06T03:48:36;5.95;;;4.00;;
21754;SDS011;11039;50.028;19.938;2023-04-06T03:51:02;6.78;;;4.13;;
21754;SDS011;11039;50.028;19.938;2023-04-06T03:53:28;5.70;;;4.07;;
21754;SDS011;11039;50.028;19.938;2023-04-06T03:55:55;6.60;;;4.07;;
21754;SDS011;11039;50.028;19.938;2023-04-06T03:58:21;5.45;;;4.22;;
21754;SDS011;11039;50.028;19.938;2023-04-06T04:00:47;6.00;;;4.13;;
21754;SDS011;11039;50.028;19.938;2023-04-06T04:03:13;6.05;;;4.45;;
21754;SDS011;11039;50.028;19.938;2023-04-06T04:05:39;7.22;;;4.43;;
21754;SDS011;11039;50.028;19.938;2023-04-06T04:08:05;5.68;;;3.97;;
21754;SDS011;11039;50.028;19.938;2023-04-06T04:10:31;4.97;;;3.70;;
21754;SDS011;11039;50.028;19.938;2023-04-06T04:12:57;6.00;;;4.32;;
21754;SDS011;11039;50.028;19.938;2023-04-06T04:15:23;6.05;;;4.35;;
21754;SDS011;11039;50.028;19.938;2023-04-06T04:17:49;6.00;;;3.67;;
21754;SDS011;11039;50.028;19.938;2023-04-06T04:20:15;6.25;;;4.60;;
21754;SDS011;11039;50.028;19.938;2023-04-06T04:22:42;6.00;;;4.28;;
21754;SDS011;11039;50.028;19.938;2023-04-06T04:25:08;7.50;;;4.78;;
21754;SDS011;11039;50.028;19.938;2023-04-06T04:27:34;6.65;;;4.10;;
21754;SDS011;11039;50.028;19.938;2023-04-06T04:30:00;6.78;;;4.55;;
21754;SDS011;11039;50.028;19.938;2023-04-06T04:32:26;5.90;;;4.05;;
21754;SDS011;11039;50.028;19.938;2023-04-06T04:34:53;5.93;;;4.00;;
21754;SDS011;11039;50.028;19.938;2023-04-06T04:37:19;6.50;;;4.68;;
21754;SDS011;11039;50.028;19.938;2023-04-06T04:39:45;6.03;;;4.35;;
21754;SDS011;11039;50.028;19.938;2023-04-06T04:42:11;5.70;;;4.13;;
21754;SDS011;11039;50.028;19.938;2023-04-06T04:44:37;7.95;;;4.38;;
21754;SDS011;11039;50.028;19.938;2023-04-06T04:47:03;8.15;;;4.72;;
21754;SDS011;11039;50.028;19.938;2023-04-06T04:49:29;7.07;;;5.20;;
21754;SDS011;11039;50.028;19.938;2023-04-06T04:51:55;8.10;;;4.80;;
21754;SDS011;11039;50.028;19.938;2023-04-06T04:54:22;5.55;;;4.35;;
21754;SDS011;11039;50.028;19.938;2023-04-06T04:56:48;8.20;;;4.85;;
21754;SDS011;11039;50.028;19.938;2023-04-06T04:59:15;5.65;;;4.13;;
21754;SDS011;11039;50.028;19.938;2023-04-06T05:01:41;6.65;;;4.25;;
21754;SDS011;11039;50.028;19.938;2023-04-06T05:04:07;6.43;;;4.35;;
21754;SDS011;11039;50.028;19.938;2023-04-06T05:06:33;7.10;;;4.55;;
21754;SDS011;11039;50.028;19.938;2023-04-06T05:08:59;6.55;;;4.65;;
21754;SDS011;11039;50.028;19.938;2023-04-06T05:11:25;7.18;;;4.72;;
21754;SDS011;11039;50.028;19.938;2023-04-06T05:13:51;8.40;;;5.25;;
21754;SDS011;11039;50.028;19.938;2023-04-06T05:16:18;7.97;;;4.88;;
21754;SDS011;11039;50.028;19.938;2023-04-06T05:18:44;8.10;;;4.78;;
21754;SDS011;11039;50.028;19.938;2023-04-06T05:21:10;7.13;;;4.38;;
21754;SDS011;11039;50.028;19.938;2023-04-06T05:23:36;6.38;;;4.43;;
21754;SDS011;11039;50.028;19.938;2023-04-06T05:26:02;7.68;;;5.13;;
21754;SDS011;11039;50.028;19.938;2023-04-06T05:28:29;7.40;;;4.88;;
21754;SDS011;11039;50.028;19.938;2023-04-06T05:30:55;6.85;;;4.75;;
21754;SDS011;11039;50.028;19.938;2023-04-06T05:33:22;6.60;;;4.90;;
21754;SDS011;11039;50.028;19.938;2023-04-06T05:35:48;6.65;;;4.47;;
21754;SDS011;11039;50.028;19.938;2023-04-06T05:38:14;6.97;;;4.90;;
21754;SDS011;11039;50.028;19.938;2023-04-06T05:40:40;6.10;;;4.40;;
21754;SDS011;11039;50.028;19.938;2023-04-06T05:43:07;7.13;;;4.75;;
21754;SDS011;11039;50.028;19.938;2023-04-06T05:45:33;7.30;;;4.78;;
21754;SDS011;11039;50.028;19.938;2023-04-06T05:48:00;7.70;;;5.10;;
21754;SDS011;11039;50.028;19.938;2023-04-06T05:50:27;6.53;;;4.65;;
21754;SDS011;11039;50.028;19.938;2023-04-06T05:52:53;5.80;;;4.43;;
21754;SDS011;11039;50.028;19.938;2023-04-06T05:55:19;5.70;;;4.28;;
21754;SDS011;11039;50.028;19.938;2023-04-06T05:57:45;6.35;;;4.90;;
21754;SDS011;11039;50.028;19.938;2023-04-06T06:00:11;6.53;;;4.65;;
21754;SDS011;11039;50.028;19.938;2023-04-06T06:02:38;7.38;;;4.50;;
21754;SDS011;11039;50.028;19.938;2023-04-06T06:05:04;7.72;;;5.03;;
21754;SDS011;11039;50.028;19.938;2023-04-06T06:07:30;6.85;;;4.65;;
21754;SDS011;11039;50.028;19.938;2023-04-06T06:09:57;8.13;;;4.78;;
21754;SDS011;11039;50.028;19.938;2023-04-06T06:12:23;6.53;;;4.40;;
21754;SDS011;11039;50.028;19.938;2023-04-06T06:14:49;5.70;;;4.50;;
21754;SDS011;11039;50.028;19.938;2023-04-06T06:17:15;6.38;;;4.30;;
21754;SDS011;11039;50.028;19.938;2023-04-06T06:19:41;5.72;;;4.45;;
21754;SDS011;11039;50.028;19.938;2023-04-06T06:22:07;7.63;;;4.80;;
21754;SDS011;11039;50.028;19.938;2023-04-06T06:24:33;6.28;;;4.63;;
21754;SDS011;11039;50.028;19.938;2023-04-06T06:27:00;6.07;;;4.38;;
21754;SDS011;11039;50.028;19.938;2023-04-06T06:29:26;7.00;;;4.57;;
21754;SDS011;11039;50.028;19.938;2023-04-06T06:31:52;7.97;;;4.35;;
21754;SDS011;11039;50.028;19.938;2023-04-06T06:34:18;6.80;;;4.60;;
21754;SDS011;11039;50.028;19.938;2023-04-06T06:36:44;6.75;;;4.18;;
21754;SDS011;11039;50.028;19.938;2023-04-06T06:39:10;7.65;;;4.38;;
21754;SDS011;11039;50.028;19.938;2023-04-06T06:41:36;9.73;;;5.00;;
21754;SDS011;11039;50.028;19.938;2023-04-06T06:44:02;7.47;;;4.40;;
21754;SDS011;11039;50.028;19.938;2023-04-06T06:46:28;7.60;;;4.47;;
21754;SDS011;11039;50.028;19.938;2023-04-06T06:48:54;7.47;;;4.13;;
21754;SDS011;11039;50.028;19.938;2023-04-06T06:51:20;7.15;;;4.07;;
21754;SDS011;11039;50.028;19.938;2023-04-06T06:53:46;6.72;;;4.22;;
21754;SDS011;11039;50.028;19.938;2023-04-06T06:56:12;7.55;;;4.20;;
21754;SDS011;11039;50.028;19.938;2023-04-06T06:58:38;6.03;;;3.75;;
21754;SDS011;11039;50.028;19.938;2023-04-06T07:01:04;7.32;;;4.38;;
21754;SDS011;11039;50.028;19.938;2023-04-06T07:03:30;5.55;;;3.75;;
21754;SDS011;11039;50.028;19.938;2023-04-06T07:05:56;8.70;;;4.35;;
21754;SDS011;11039;50.028;19.938;2023-04-06T07:08:23;6.68;;;4.07;;
21754;SDS011;11039;50.028;19.938;2023-04-06T07:10:50;9.57;;;4.28;;
21754;SDS011;11039;50.028;19.938;2023-04-06T07:13:17;7.18;;;4.18;;
21754;SDS011;11039;50.028;19.938;2023-04-06T07:15:47;7.97;;;4.10;;
21754;SDS011;11039;50.028;19.938;2023-04-06T07:18:13;6.05;;;4.20;;
21754;SDS011;11039;50.028;19.938;2023-04-06T07:20:39;8.30;;;3.92;;
21754;SDS011;11039;50.028;19.938;2023-04-06T07:23:06;6.22;;;4.22;;
21754;SDS011;11039;50.028;19.938;2023-04-06T07:25:32;6.15;;;4.03;;
21754;SDS011;11039;50.028;19.938;2023-04-06T07:27:58;8.88;;;3.38;;
21754;SDS011;11039;50.028;19.938;2023-04-06T07:30:24;5.93;;;3.80;;
21754;SDS011;11039;50.028;19.938;2023-04-06T07:32:52;11.52;;;3.95;;
21754;SDS011;11039;50.028;19.938;2023-04-06T07:35:20;6.28;;;3.67;;
21754;SDS011;11039;50.028;19.938;2023-04-06T07:37:46;6.35;;;3.78;;
21754;SDS011;11039;50.028;19.938;2023-04-06T07:40:12;7.07;;;4.03;;
21754;SDS011;11039;50.028;19.938;2023-04-06T07:42:38;6.60;;;4.18;;
21754;SDS011;11039;50.028;19.938;2023-04-06T07:45:05;5.70;;;3.58;;
21754;SDS011;11039;50.028;19.938;2023-04-06T07:47:31;8.48;;;3.53;;
21754;SDS011;11039;50.028;19.938;2023-04-06T07:49:57;7.15;;;4.10;;
21754;SDS011;11039;50.028;19.938;2023-04-06T07:52:23;6.10;;;3.72;;
21754;SDS011;11039;50.028;19.938;2023-04-06T07:54:49;7.03;;;3.65;;
21754;SDS011;11039;50.028;19.938;2023-04-06T07:57:15;8.25;;;3.67;;
21754;SDS011;11039;50.028;19.938;2023-04-06T07:59:41;5.80;;;3.13;;
21754;SDS011;11039;50.028;19.938;2023-04-06T08:02:07;5.78;;;3.60;;
21754;SDS011;11039;50.028;19.938;2023-04-06T08:04:33;6.60;;;3.13;;
21754;SDS011;11039;50.028;19.938;2023-04-06T08:06:59;8.15;;;3.58;;
21754;SDS011;11039;50.028;19.938;2023-04-06T08:09:25;4.93;;;3.60;;
21754;SDS011;11039;50.028;19.938;2023-04-06T08:11:52;8.07;;;3.47;;
21754;SDS011;11039;50.028;19.938;2023-04-06T08:14:18;5.88;;;3.88;;
21754;SDS011;11039;50.028;19.938;2023-04-06T08:16:45;10.60;;;4.30;;
21754;SDS011;11039;50.028;19.938;2023-04-06T08:19:11;6.40;;;4.10;;
21754;SDS011;11039;50.028;19.938;2023-04-06T08:21:37;9.60;;;4.03;;
21754;SDS011;11039;50.028;19.938;2023-04-06T08:24:04;5.72;;;3.72;;
21754;SDS011;11039;50.028;19.938;2023-04-06T08:26:31;6.40;;;3.83;;
21754;SDS011;11039;50.028;19.938;2023-04-06T08:28:57;8.80;;;3.67;;
21754;SDS011;11039;50.028;19.938;2023-04-06T08:31:23;11.02;;;4.20;;
21754;SDS011;11039;50.028;19.938;2023-04-06T08:33:49;7.13;;;3.70;;
21754;SDS011;11039;50.028;19.938;2023-04-06T08:36:15;7.18;;;3.85;;
21754;SDS011;11039;50.028;19.938;2023-04-06T08:38:45;6.45;;;3.50;;
21754;SDS011;11039;50.028;19.938;2023-04-06T08:41:11;7.40;;;4.00;;
21754;SDS011;11039;50.028;19.938;2023-04-06T08:43:46;6.47;;;3.40;;
21754;SDS011;11039;50.028;19.938;2023-04-06T08:46:12;7.38;;;3.60;;
21754;SDS011;11039;50.028;19.938;2023-04-06T08:48:39;5.57;;;3.47;;
21754;SDS011;11039;50.028;19.938;2023-04-06T08:51:06;5.80;;;3.08;;
21754;SDS011;11039;50.028;19.938;2023-04-06T08:53:33;5.38;;;2.83;;
21754;SDS011;11039;50.028;19.938;2023-04-06T08:55:59;4.82;;;3.05;;
21754;SDS011;11039;50.028;19.938;2023-04-06T08:58:27;6.28;;;3.40;;
21754;SDS011;11039;50.028;19.938;2023-04-06T09:00:54;6.43;;;3.30;;
21754;SDS011;11039;50.028;19.938;2023-04-06T09:03:20;6.55;;;3.13;;
21754;SDS011;11039;50.028;19.938;2023-04-06T09:05:47;5.90;;;2.85;;
21754;SDS011;11039;50.028;19.938;2023-04-06T09:08:13;6.78;;;2.97;;
21754;SDS011;11039;50.028;19.938;2023-04-06T09:10:42;6.55;;;3.50;;
21754;SDS011;11039;50.028;19.938;2023-04-06T09:13:08;6.68;;;3.28;;
21754;SDS011;11039;50.028;19.938;2023-04-06T09:15:35;5.60;;;2.78;;
21754;SDS011;11039;50.028;19.938;2023-04-06T09:18:01;6.35;;;3.15;;
21754;SDS011;11039;50.028;19.938;2023-04-06T09:20:27;8.13;;;3.60;;
21754;SDS011;11039;50.028;19.938;2023-04-06T09:22:53;6.32;;;2.95;;
21754;SDS011;11039;50.028;19.938;2023-04-06T09:25:23;6.70;;;3.10;;
21754;SDS011;11039;50.028;19.938;2023-04-06T09:27:58;8.38;;;3.30;;
21754;SDS011;11039;50.028;19.938;2023-04-06T09:30:25;8.43;;;3.40;;
21754;SDS011;11039;50.028;19.938;2023-04-06T09:32:52;7.38;;;3.10;;
21754;SDS011;11039;50.028;19.938;2023-04-06T09:35:19;8.35;;;3.70;;
21754;SDS011;11039;50.028;19.938;2023-04-06T09:37:45;7.22;;;3.20;;
21754;SDS011;11039;50.028;19.938;2023-04-06T09:40:12;7.53;;;2.85;;
21754;SDS011;11039;50.028;19.938;2023-04-06T09:42:41;9.35;;;2.78;;
21754;SDS011;11039;50.028;19.938;2023-04-06T09:45:08;8.35;;;4.05;;
21754;SDS011;11039;50.028;19.938;2023-04-06T09:47:35;12.23;;;3.50;;
21754;SDS011;11039;50.028;19.938;2023-04-06T09:50:02;10.45;;;2.90;;
21754;SDS011;11039;50.028;19.938;2023-04-06T09:52:47;11.48;;;3.40;;
21754;SDS011;11039;50.028;19.938;2023-04-06T09:55:17;11.88;;;3.70;;
21754;SDS011;11039;50.028;19.938;2023-04-06T09:57:57;20.50;;;5.45;;
21754;SDS011;11039;50.028;19.938;2023-04-06T10:00:25;19.98;;;5.03;;
21754;SDS011;11039;50.028;19.938;2023-04-06T10:03:08;25.67;;;5.85;;
21754;SDS011;11039;50.028;19.938;2023-04-06T10:05:37;23.23;;;6.38;;
21754;SDS011;11039;50.028;19.938;2023-04-06T10:08:08;29.92;;;6.60;;
21754;SDS011;11039;50.028;19.938;2023-04-06T10:10:35;24.88;;;6.38;;
21754;SDS011;11039;50.028;19.938;2023-04-06T10:13:01;24.40;;;6.15;;
21754;SDS011;11039;50.028;19.938;2023-04-06T10:15:28;26.42;;;6.43;;
21754;SDS011;11039;50.028;19.938;2023-04-06T10:17:55;26.95;;;6.50;;
21754;SDS011;11039;50.028;19.938;2023-04-06T10:20:23;21.58;;;5.72;;
21754;SDS011;11039;50.028;19.938;2023-04-06T10:22:59;25.98;;;6.35;;
21754;SDS011;11039;50.028;19.938;2023-04-06T10:25:27;23.95;;;6.22;;
21754;SDS011;11039;50.028;19.938;2023-04-06T10:28:00;21.80;;;5.85;;
21754;SDS011;11039;50.028;19.938;2023-04-06T10:30:26;25.30;;;6.20;;
21754;SDS011;11039;50.028;19.938;2023-04-06T10:32:53;21.60;;;4.88;;
21754;SDS011;11039;50.028;19.938;2023-04-06T10:35:20;20.30;;;5.72;;
21754;SDS011;11039;50.028;19.938;2023-04-06T10:37:47;23.70;;;6.20;;
21754;SDS011;11039;50.028;19.938;2023-04-06T10:40:23;19.42;;;5.57;;
21754;SDS011;11039;50.028;19.938;2023-04-06T10:42:50;19.42;;;5.50;;
21754;SDS011;11039;50.028;19.938;2023-04-06T10:45:23;19.88;;;5.25;;
21754;SDS011;11039;50.028;19.938;2023-04-06T10:47:53;16.20;;;5.25;;
21754;SDS011;11039;50.028;19.938;2023-04-06T10:50:19;10.63;;;5.28;;
21754;SDS011;11039;50.028;19.938;2023-04-06T10:52:46;13.93;;;6.82;;
21754;SDS011;11039;50.028;19.938;2023-04-06T10:55:13;10.82;;;5.75;;
21754;SDS011;11039;50.028;19.938;2023-04-06T10:57:40;10.40;;;5.95;;
21754;SDS011;11039;50.028;19.938;2023-04-06T11:00:06;9.20;;;4.95;;
21754;SDS011;11039;50.028;19.938;2023-04-06T11:02:33;11.38;;;4.70;;
21754;SDS011;11039;50.028;19.938;2023-04-06T11:05:00;10.75;;;4.43;;
21754;SDS011;11039;50.028;19.938;2023-04-06T11:07:27;9.80;;;4.25;;
21754;SDS011;11039;50.028;19.938;2023-04-06T11:09:55;11.82;;;4.60;;
21754;SDS011;11039;50.028;19.938;2023-04-06T11:12:24;9.98;;;4.68;;
21754;SDS011;11039;50.028;19.938;2023-04-06T11:14:54;10.35;;;4.10;;
21754;SDS011;11039;50.028;19.938;2023-04-06T11:17:30;10.85;;;4.50;;
21754;SDS011;11039;50.028;19.938;2023-04-06T11:19:57;6.68;;;3.80;;
21754;SDS011;11039;50.028;19.938;2023-04-06T11:22:24;9.10;;;4.50;;
21754;SDS011;11039;50.028;19.938;2023-04-06T11:24:50;10.40;;;4.07;;
21754;SDS011;11039;50.028;19.938;2023-04-06T11:27:16;9.75;;;4.13;;
21754;SDS011;11039;50.028;19.938;2023-04-06T11:29:43;8.93;;;3.58;;
21754;SDS011;11039;50.028;19.938;2023-04-06T11:32:11;8.48;;;3.63;;
21754;SDS011;11039;50.028;19.938;2023-04-06T11:34:38;8.40;;;3.88;;
21754;SDS011;11039;50.028;19.938;2023-04-06T11:37:10;7.30;;;3.65;;
21754;SDS011;11039;50.028;19.938;2023-04-06T11:39:40;8.75;;;4.00;;
21754;SDS011;11039;50.028;19.938;2023-04-06T11:42:06;7.07;;;3.58;;
21754;SDS011;11039;50.028;19.938;2023-04-06T11:44:33;10.23;;;4.07;;
21754;SDS011;11039;50.028;19.938;2023-04-06T11:47:03;6.60;;;3.83;;
21754;SDS011;11039;50.028;19.938;2023-04-06T11:49:31;7.57;;;4.30;;
21754;SDS011;11039;50.028;19.938;2023-04-06T11:51:57;10.98;;;3.50;;
21754;SDS011;11039;50.028;19.938;2023-04-06T11:54:34;10.43;;;2.92;;
21754;SDS011;11039;50.028;19.938;2023-04-06T11:57:01;7.95;;;3.53;;
21754;SDS011;11039;50.028;19.938;2023-04-06T11:59:27;9.45;;;3.78;;
21754;SDS011;11039;50.028;19.938;2023-04-06T12:01:53;6.55;;;3.20;;
21754;SDS011;11039;50.028;19.938;2023-04-06T12:04:19;8.00;;;3.60;;
21754;SDS011;11039;50.028;19.938;2023-04-06T12:06:45;7.78;;;3.03;;
21754;SDS011;11039;50.028;19.938;2023-04-06T12:09:11;6.90;;;3.55;;
21754;SDS011;11039;50.028;19.938;2023-04-06T12:11:37;8.68;;;3.42;;
21754;SDS011;11039;50.028;19.938;2023-04-06T12:14:04;8.57;;;3.47;;
21754;SDS011;11039;50.028;19.938;2023-04-06T12:16:32;7.35;;;3.10;;
21754;SDS011;11039;50.028;19.938;2023-04-06T12:18:58;8.82;;;3.42;;
21754;SDS011;11039;50.028;19.938;2023-04-06T12:21:26;6.95;;;3.08;;
21754;SDS011;11039;50.028;19.938;2023-04-06T12:23:52;5.10;;;2.90;;
21754;SDS011;11039;50.028;19.938;2023-04-06T12:26:18;7.97;;;3.03;;
21754;SDS011;11039;50.028;19.938;2023-04-06T12:28:44;5.40;;;2.88;;
21754;SDS011;11039;50.028;19.938;2023-04-06T12:31:17;6.90;;;3.58;;
21754;SDS011;11039;50.028;19.938;2023-04-06T12:33:43;7.25;;;3.30;;
21754;SDS011;11039;50.028;19.938;2023-04-06T12:36:13;5.55;;;2.80;;
21754;SDS011;11039;50.028;19.938;2023-04-06T12:38:40;6.60;;;3.22;;
21754;SDS011;11039;50.028;19.938;2023-04-06T12:41:07;5.38;;;3.10;;
21754;SDS011;11039;50.028;19.938;2023-04-06T12:43:33;7.38;;;3.17;;
21754;SDS011;11039;50.028;19.938;2023-04-06T12:45:59;5.63;;;3.00;;
21754;SDS011;11039;50.028;19.938;2023-04-06T12:48:25;5.38;;;3.17;;
21754;SDS011;11039;50.028;19.938;2023-04-06T12:50:58;6.78;;;3.13;;
21754;SDS011;11039;50.028;19.938;2023-04-06T12:53:25;6.25;;;2.78;;
21754;SDS011;11039;50.028;19.938;2023-04-06T12:55:51;4.38;;;2.55;;
21754;SDS011;11039;50.028;19.938;2023-04-06T12:58:18;4.53;;;2.80;;
21754;SDS011;11039;50.028;19.938;2023-04-06T13:00:44;4.70;;;2.90;;
21754;SDS011;11039;50.028;19.938;2023-04-06T13:03:10;6.10;;;2.97;;
21754;SDS011;11039;50.028;19.938;2023-04-06T13:05:43;5.80;;;2.60;;
21754;SDS011;11039;50.028;19.938;2023-04-06T13:08:09;5.50;;;2.65;;
21754;SDS011;11039;50.028;19.938;2023-04-06T13:10:35;5.45;;;2.92;;
21754;SDS011;11039;50.028;19.938;2023-04-06T13:13:02;4.85;;;2.80;;
21754;SDS011;11039;50.028;19.938;2023-04-06T13:15:28;6.20;;;3.20;;
21754;SDS011;11039;50.028;19.938;2023-04-06T13:17:54;6.50;;;3.05;;
21754;SDS011;11039;50.028;19.938;2023-04-06T13:20:20;4.88;;;2.58;;
21754;SDS011;11039;50.028;19.938;2023-04-06T13:22:46;5.43;;;3.00;;
21754;SDS011;11039;50.028;19.938;2023-04-06T13:25:12;5.50;;;2.95;;
21754;SDS011;11039;50.028;19.938;2023-04-06T13:27:38;5.28;;;2.95;;
21754;SDS011;11039;50.028;19.938;2023-04-06T13:30:05;5.13;;;2.47;;
21754;SDS011;11039;50.028;19.938;2023-04-06T13:32:32;5.68;;;2.83;;
21754;SDS011;11039;50.028;19.938;2023-04-06T13:34:58;4.60;;;2.72;;
21754;SDS011;11039;50.028;19.938;2023-04-06T13:37:25;4.25;;;2.80;;
21754;SDS011;11039;50.028;19.938;2023-04-06T13:39:51;5.78;;;2.40;;
21754;SDS011;11039;50.028;19.938;2023-04-06T13:42:17;7.00;;;2.90;;
21754;SDS011;11039;50.028;19.938;2023-04-06T13:44:43;5.63;;;3.08;;
21754;SDS011;11039;50.028;19.938;2023-04-06T13:47:11;4.90;;;2.55;;
21754;SDS011;11039;50.028;19.938;2023-04-06T13:49:37;5.78;;;2.75;;
21754;SDS011;11039;50.028;19.938;2023-04-06T13:52:03;4.38;;;2.63;;
21754;SDS011;11039;50.028;19.938;2023-04-06T13:54:30;6.00;;;2.88;;
21754;SDS011;11039;50.028;19.938;2023-04-06T13:56:56;6.57;;;5.22;;
21754;SDS011;11039;50.028;19.938;2023-04-06T13:59:22;7.75;;;5.95;;
21754;SDS011;11039;50.028;19.938;2023-04-06T14:01:48;11.75;;;6.63;;
21754;SDS011;11039;50.028;19.938;2023-04-06T14:04:14;7.88;;;5.20;;
21754;SDS011;11039;50.028;19.938;2023-04-06T14:06:40;8.57;;;4.43;;
21754;SDS011;11039;50.028;19.938;2023-04-06T14:09:06;6.43;;;3.97;;
21754;SDS011;11039;50.028;19.938;2023-04-06T14:11:32;7.43;;;3.40;;
21754;SDS011;11039;50.028;19.938;2023-04-06T14:13:59;5.15;;;3.33;;
21754;SDS011;11039;50.028;19.938;2023-04-06T14:16:25;8.85;;;3.45;;
21754;SDS011;11039;50.028;19.938;2023-04-06T14:18:51;6.30;;;3.50;;
21754;SDS011;11039;50.028;19.938;2023-04-06T14:21:17;4.78;;;3.33;;
21754;SDS011;11039;50.028;19.938;2023-04-06T14:23:43;6.65;;;3.50;;
21754;SDS011;11039;50.028;19.938;2023-04-06T14:26:11;5.93;;;3.40;;
21754;SDS011;11039;50.028;19.938;2023-04-06T14:28:37;6.65;;;3.47;;
21754;SDS011;11039;50.028;19.938;2023-04-06T14:31:09;5.53;;;3.80;;